createdAt,value
2023-02-17T00:01:21.904Z,23.98
2023-02-17T00:06:26.648Z,21.15
2023-02-17T00:11:28.692Z,24.00
2023-02-17T00:16:30.400Z,23.20
2023-02-17T00:21:32.561Z,26.30
2023-02-17T00:26:34.261Z,23.53
2023-02-17T00:31:36.192Z,24.88
2023-02-17T00:36:38.783Z,22.80
2023-02-17T00:41:41.033Z,23.35
2023-02-17T00:46:42.784Z,24.80
2023-02-17T00:51:45.788Z,23.35
2023-02-17T00:56:47.536Z,20.73
2023-02-17T01:01:49.294Z,26.15
2023-02-17T01:06:51.091Z,22.33
2023-02-17T01:11:53.006Z,19.60
2023-02-17T01:16:54.729Z,21.05
2023-02-17T01:21:56.535Z,22.00
2023-02-17T01:26:58.244Z,19.50
2023-02-17T01:32:02.540Z,23.50
2023-02-17T01:37:04.863Z,20.27
2023-02-17T01:42:16.606Z,18.98
2023-02-17T01:47:18.477Z,18.50
2023-02-17T01:52:25.290Z,23.92
2023-02-17T01:57:30.240Z,19.42
2023-02-17T02:02:32.850Z,20.30
2023-02-17T02:07:39.017Z,17.58
2023-02-17T02:12:42.955Z,18.30
2023-02-17T02:18:09.633Z,17.50
2023-02-17T02:23:29.861Z,16.48
2023-02-17T02:29:09.464Z,18.23
2023-02-17T02:34:20.780Z,15.48
2023-02-17T02:39:28.188Z,15.98
2023-02-17T02:44:30.516Z,42.17
2023-02-17T02:49:35.465Z,18.52
2023-02-17T02:55:10.005Z,16.95
2023-02-17T03:00:29.901Z,15.80
2023-02-17T03:05:57.250Z,13.55
2023-02-17T03:11:00.581Z,16.02
2023-02-17T03:16:09.127Z,15.43
2023-02-17T03:21:15.841Z,14.43
2023-02-17T03:26:18.229Z,12.60
2023-02-17T03:31:21.923Z,11.07
2023-02-17T03:36:23.679Z,12.43
2023-02-17T03:41:25.964Z,16.33
2023-02-17T03:46:27.686Z,11.50
2023-02-17T03:51:29.472Z,12.60
2023-02-17T03:56:31.676Z,13.10
2023-02-17T04:01:33.618Z,11.18
2023-02-17T04:06:35.476Z,10.07
2023-02-17T04:11:37.589Z,14.68
2023-02-17T04:16:39.396Z,12.47
2023-02-17T04:21:41.270Z,13.73
2023-02-17T04:26:42.947Z,10.70
2023-02-17T04:31:44.694Z,13.27
2023-02-17T04:36:46.428Z,12.13
2023-02-17T04:41:48.272Z,10.00
2023-02-17T04:46:49.912Z,12.43
2023-02-17T04:51:51.948Z,15.27
2023-02-17T04:56:53.611Z,14.13
2023-02-17T05:01:55.231Z,16.77
2023-02-17T05:06:56.986Z,15.75
2023-02-17T05:11:59.113Z,11.82
2023-02-17T05:17:00.809Z,12.13
2023-02-17T05:22:02.894Z,15.02
2023-02-17T05:27:04.650Z,12.70
2023-02-17T05:32:06.398Z,14.02
2023-02-17T05:37:08.145Z,13.23
2023-02-17T05:42:09.922Z,12.23
2023-02-17T05:47:11.764Z,13.45
2023-02-17T05:52:13.461Z,12.77
2023-02-17T05:57:15.117Z,17.35
2023-02-17T06:02:16.836Z,12.15
2023-02-17T06:07:18.889Z,12.90
2023-02-17T06:12:20.828Z,12.23
2023-02-17T06:17:22.582Z,11.15
2023-02-17T06:22:24.302Z,12.90
2023-02-17T06:27:26.168Z,13.40
2023-02-17T06:32:28.221Z,10.13
2023-02-17T06:37:29.991Z,12.97
2023-02-17T06:42:31.770Z,14.25
2023-02-17T06:47:34.635Z,14.82
2023-02-17T06:52:36.699Z,13.55
2023-02-17T06:57:38.376Z,13.00
2023-02-17T07:02:40.837Z,15.50
2023-02-17T07:07:42.661Z,13.07
2023-02-17T07:12:44.687Z,11.33
2023-02-17T07:17:46.734Z,20.50
2023-02-17T07:22:48.496Z,15.37
2023-02-17T07:27:50.209Z,15.52
2023-02-17T07:32:51.792Z,17.10
2023-02-17T07:37:53.528Z,16.90
2023-02-17T07:42:56.885Z,12.98
2023-02-17T07:47:58.617Z,13.50
2023-02-17T07:53:00.601Z,12.50
2023-02-17T07:58:02.284Z,12.13
2023-02-17T08:03:04.282Z,12.35
2023-02-17T08:08:24.569Z,12.13
2023-02-17T08:13:27.652Z,9.63
2023-02-17T08:23:38.108Z,13.43
2023-02-17T08:28:40.298Z,10.98
2023-02-17T08:33:42.011Z,10.67
2023-02-17T08:38:48.528Z,10.90
2023-02-17T08:43:51.079Z,12.13
2023-02-17T08:48:55.765Z,15.45
2023-02-17T08:54:00.712Z,14.60
2023-02-17T08:59:02.575Z,13.18
2023-02-17T09:04:06.830Z,7.78
2023-02-17T09:09:11.673Z,13.93
2023-02-17T09:14:13.747Z,9.82
2023-02-17T09:19:15.879Z,7.97
2023-02-17T09:24:17.961Z,9.15
2023-02-17T09:29:19.665Z,12.63
2023-02-17T09:34:21.401Z,9.60
2023-02-17T09:39:25.456Z,7.95
2023-02-17T09:44:43.954Z,10.35
2023-02-17T09:49:51.132Z,11.05
2023-02-17T09:55:01.472Z,9.80
2023-02-17T10:00:35.276Z,10.05
2023-02-17T10:05:51.295Z,11.40
2023-02-17T10:11:00.654Z,8.02
2023-02-17T10:16:10.171Z,5.85
2023-02-17T10:21:35.376Z,10.18
2023-02-17T10:26:57.322Z,11.70
2023-02-17T10:32:19.970Z,7.53
2023-02-17T10:37:33.273Z,7.78
2023-02-17T10:42:38.145Z,6.10
2023-02-17T10:47:41.115Z,6.40
2023-02-17T10:52:46.441Z,6.82
2023-02-17T10:57:52.362Z,6.28
2023-02-17T11:02:54.303Z,6.50
2023-02-17T11:08:00.653Z,7.93
2023-02-17T11:13:19.421Z,7.22
2023-02-17T11:18:27.913Z,10.25
2023-02-17T11:23:29.922Z,7.90
2023-02-17T11:28:31.976Z,8.47
2023-02-17T11:33:37.197Z,6.38
2023-02-17T11:38:38.823Z,8.57
2023-02-17T11:43:51.803Z,9.60
2023-02-17T11:49:05.128Z,6.65
2023-02-17T11:54:22.939Z,6.57
2023-02-17T11:59:40.372Z,5.80
2023-02-17T12:04:52.881Z,5.88
2023-02-17T12:10:06.913Z,9.13
2023-02-17T12:15:17.318Z,8.82
2023-02-17T12:20:50.960Z,5.28
2023-02-17T12:26:05.031Z,5.20
2023-02-17T12:31:12.084Z,5.80
2023-02-17T12:36:20.126Z,6.00
2023-02-17T12:41:37.290Z,5.38
2023-02-17T12:46:43.058Z,5.55
2023-02-17T12:51:51.852Z,4.63
2023-02-17T12:56:59.956Z,7.10
2023-02-17T13:02:07.635Z,8.07
2023-02-17T13:07:43.606Z,5.32
2023-02-17T13:13:06.155Z,4.95
2023-02-17T13:18:27.500Z,6.88
2023-02-17T13:23:35.274Z,3.50
2023-02-17T13:28:40.641Z,5.95
2023-02-17T13:33:46.561Z,5.07
2023-02-17T13:44:40.208Z,5.25
2023-02-17T13:49:42.371Z,8.00
2023-02-17T13:55:19.021Z,7.47
2023-02-17T14:00:24.240Z,7.65
2023-02-17T14:05:32.177Z,6.97
2023-02-17T14:10:36.036Z,10.13
2023-02-17T14:15:38.887Z,7.38
2023-02-17T14:20:41.251Z,7.22
2023-02-17T14:25:46.571Z,9.23
2023-02-17T14:30:48.975Z,6.55
2023-02-17T14:35:58.082Z,11.30
2023-02-17T14:41:01.214Z,8.80
2023-02-17T14:46:03.215Z,9.10
2023-02-17T14:51:12.764Z,8.97
2023-02-17T14:56:27.509Z,9.63
2023-02-17T15:01:29.252Z,8.50
2023-02-17T15:06:40.970Z,7.97
2023-02-17T15:11:46.267Z,7.30
2023-02-17T15:16:48.793Z,6.35
2023-02-17T15:21:51.905Z,5.88
2023-02-17T15:26:54.327Z,6.88
2023-02-17T15:31:59.957Z,8.27
2023-02-17T15:37:02.742Z,6.55
2023-02-17T15:42:11.455Z,6.05
2023-02-17T15:47:16.105Z,7.50
2023-02-17T15:52:18.015Z,7.15
2023-02-17T15:57:24.771Z,7.10
2023-02-17T16:02:26.546Z,7.70
2023-02-17T16:07:28.215Z,6.40
2023-02-17T16:12:30.007Z,7.43
2023-02-17T16:17:31.952Z,6.13
2023-02-17T16:22:33.721Z,5.85
2023-02-17T16:27:36.758Z,8.67
2023-02-17T16:32:38.563Z,8.65
2023-02-17T16:37:40.306Z,7.93
2023-02-17T16:42:42.275Z,10.75
2023-02-17T16:47:47.429Z,10.43
2023-02-17T16:52:49.158Z,11.43
2023-02-17T16:57:51.324Z,9.98
2023-02-17T17:02:53.685Z,9.00
2023-02-17T17:07:56.488Z,8.85
2023-02-17T17:18:02.635Z,12.65
2023-02-17T17:23:11.579Z,8.18
2023-02-17T17:28:14.945Z,7.82
2023-02-17T17:33:17.152Z,8.05
2023-02-17T17:38:19.516Z,8.27
2023-02-17T17:43:36.398Z,7.70
2023-02-17T17:48:38.149Z,8.68
2023-02-17T17:53:40.029Z,9.27
2023-02-17T17:58:42.168Z,8.20
2023-02-17T18:03:43.894Z,5.07
2023-02-17T18:08:47.574Z,6.78
2023-02-17T18:13:51.919Z,8.75
2023-02-17T18:18:56.145Z,6.78
2023-02-17T18:23:57.881Z,9.15
2023-02-17T18:29:00.603Z,5.60
2023-02-17T18:34:02.296Z,6.38
2023-02-17T18:39:05.102Z,6.40
2023-02-17T18:44:07.027Z,8.02
2023-02-17T18:49:08.770Z,7.93
2023-02-17T18:54:11.029Z,9.60
2023-02-17T18:59:12.849Z,8.57
2023-02-17T19:04:15.307Z,7.63
2023-02-17T19:09:17.461Z,7.68
2023-02-17T19:14:19.089Z,7.85
2023-02-17T19:19:20.797Z,10.32
2023-02-17T19:24:22.873Z,7.13
2023-02-17T19:29:24.685Z,7.10
2023-02-17T19:34:28.172Z,8.07
2023-02-17T19:39:31.215Z,8.13
2023-02-17T19:49:34.767Z,6.38
2023-02-17T19:54:36.735Z,9.45
2023-02-17T19:59:38.501Z,8.03
2023-02-17T20:04:40.473Z,7.20
2023-02-17T20:09:44.497Z,8.63
2023-02-17T20:14:46.270Z,5.70
2023-02-17T20:19:47.943Z,9.40
2023-02-17T20:24:49.589Z,7.40
2023-02-17T20:29:51.471Z,5.57
2023-02-17T20:34:53.134Z,5.43
2023-02-17T20:39:54.779Z,5.82
2023-02-17T20:44:56.781Z,6.07
2023-02-17T20:49:58.476Z,4.47
2023-02-17T20:55:00.381Z,5.95
2023-02-17T21:00:04.649Z,8.13
2023-02-17T21:05:06.653Z,5.55
2023-02-17T21:10:14.760Z,5.25
2023-02-17T21:15:17.229Z,5.88
2023-02-17T21:20:21.041Z,5.50
2023-02-17T21:25:23.126Z,5.22
2023-02-17T21:30:26.605Z,4.97
2023-02-17T21:35:28.695Z,3.85
2023-02-17T21:40:30.540Z,4.87
2023-02-17T21:45:37.676Z,3.75
2023-02-17T21:50:39.742Z,2.90
2023-02-17T21:55:41.411Z,3.83
2023-02-17T22:00:43.253Z,5.05
2023-02-17T22:05:45.237Z,3.57
2023-02-17T22:10:46.898Z,4.18
2023-02-17T22:15:57.909Z,3.90
2023-02-17T22:20:59.552Z,4.80
2023-02-17T22:26:06.097Z,4.10
2023-02-17T22:31:08.460Z,4.50
2023-02-17T22:36:16.206Z,3.87
2023-02-17T22:41:20.024Z,4.20
2023-02-17T22:46:24.614Z,3.92
2023-02-17T22:51:30.596Z,4.03
2023-02-17T22:56:33.116Z,4.65
2023-02-17T23:01:36.343Z,3.55
2023-02-17T23:06:38.282Z,4.03
2023-02-17T23:11:58.280Z,4.63
2023-02-17T23:17:03.489Z,3.78
2023-02-17T23:22:16.981Z,3.88
2023-02-17T23:27:21.198Z,4.05
2023-02-17T23:32:22.910Z,3.60
2023-02-17T23:37:24.707Z,3.80
2023-02-17T23:42:26.463Z,4.03
2023-02-17T23:47:28.238Z,4.95
2023-02-17T23:52:29.952Z,5.05
2023-02-17T23:57:36.084Z,4.32
